Branch #1, Nevada
Current Conditions -  °F | °C
As of 2:55 AM on Saturday 01 Nov 2014 (Local Time) from KCXP Reporting Station
Overcast Overcast  
Wind Chill: 39°   Ceiling: 2500
Heat Index: 39°   Visibility: 10mi
Dew Point: 37°   Wind: 0mph
Humidity: 93%   Direction: NA
Pressure: 29.66"   Gusts: NA
Location:  39.2925°N, 119.784°W
Report Text: KCXP 010955Z AUTO 00000KT 10SM FEW013 BKN025 OVC075 04/03 A2966 RMK AO2
Loading
Personal Weather Stations






























Interactive Weather Map
Tropical Storm Tracking
New forecast layout! Learn more

10-Day Weather Forecast

Advertisements
Track Severe Weather on mobile